createdAt,value
2018-08-04T00:02:15.296Z,19.77
2018-08-04T00:04:44.465Z,16.23
2018-08-04T00:07:13.625Z,16.42
2018-08-04T00:09:42.576Z,16.37
2018-08-04T00:12:12.860Z,17.23
2018-08-04T00:14:42.028Z,17.82
2018-08-04T00:17:11.215Z,18.48
2018-08-04T00:19:40.397Z,17.40
2018-08-04T00:22:09.642Z,18.30
2018-08-04T00:24:38.845Z,17.95
2018-08-04T00:27:08.013Z,18.05
2018-08-04T00:29:36.952Z,17.25
2018-08-04T00:32:06.117Z,17.62
2018-08-04T00:34:35.333Z,17.92
2018-08-04T00:37:04.525Z,18.07
2018-08-04T00:39:33.845Z,18.70
2018-08-04T00:42:03.027Z,17.98
2018-08-04T00:44:32.264Z,18.25
2018-08-04T00:47:01.443Z,17.65
2018-08-04T00:49:30.610Z,23.80
2018-08-04T00:51:59.800Z,20.55
2018-08-04T00:54:28.971Z,18.20
2018-08-04T00:56:58.146Z,18.37
2018-08-04T00:59:27.332Z,18.17
2018-08-04T01:01:56.509Z,18.92
2018-08-04T01:04:25.728Z,17.95
2018-08-04T01:06:54.892Z,18.95
2018-08-04T01:09:24.077Z,18.32
2018-08-04T01:11:53.265Z,20.00
2018-08-04T01:14:22.469Z,20.97
2018-08-04T01:16:51.682Z,19.87
2018-08-04T01:19:20.839Z,20.68
2018-08-04T01:21:50.010Z,19.98
2018-08-04T01:24:19.183Z,19.90
2018-08-04T01:26:48.365Z,20.00
2018-08-04T01:29:17.578Z,20.43
2018-08-04T01:31:46.753Z,23.50
2018-08-04T01:34:15.937Z,19.42
2018-08-04T01:36:45.143Z,19.02
2018-08-04T01:39:14.317Z,19.75
2018-08-04T01:41:43.500Z,20.10
2018-08-04T01:44:12.696Z,20.50
2018-08-04T01:46:41.905Z,20.48
2018-08-04T01:49:11.078Z,20.37
2018-08-04T01:51:40.241Z,19.45
2018-08-04T01:54:09.413Z,19.80
2018-08-04T01:56:38.593Z,20.37
2018-08-04T01:59:07.808Z,20.95
2018-08-04T02:01:36.975Z,19.92
2018-08-04T02:04:06.303Z,20.20
2018-08-04T02:06:35.461Z,20.25
2018-08-04T02:09:07.089Z,21.15
2018-08-04T02:11:36.262Z,20.60
2018-08-04T02:14:05.491Z,21.17
2018-08-04T02:16:34.860Z,20.10
2018-08-04T02:19:04.045Z,21.90
2018-08-04T02:21:33.228Z,22.00
2018-08-04T02:24:02.401Z,22.32
2018-08-04T02:26:31.600Z,21.50
2018-08-04T02:29:00.770Z,21.07
2018-08-04T02:31:29.966Z,21.07
2018-08-04T02:33:59.155Z,21.48
2018-08-04T02:36:28.333Z,21.70
2018-08-04T02:38:57.517Z,22.30
2018-08-04T02:41:26.717Z,23.07
2018-08-04T02:43:55.903Z,21.27
2018-08-04T02:46:25.065Z,22.60
2018-08-04T02:48:54.249Z,21.60
2018-08-04T02:51:23.397Z,22.45
2018-08-04T02:53:52.581Z,21.40
2018-08-04T02:56:21.737Z,20.82
2018-08-04T02:58:51.141Z,22.52
2018-08-04T03:01:20.350Z,21.80
2018-08-04T03:03:49.526Z,22.42
2018-08-04T03:06:18.694Z,22.10
2018-08-04T03:08:47.655Z,21.82
2018-08-04T03:11:16.845Z,21.05
2018-08-04T03:13:46.021Z,22.40
2018-08-04T03:16:15.309Z,21.73
2018-08-04T03:18:44.501Z,21.97
2018-08-04T03:21:13.731Z,20.48
2018-08-04T03:23:42.905Z,21.60
2018-08-04T03:26:12.097Z,21.05
2018-08-04T03:28:41.269Z,21.42
2018-08-04T03:31:10.474Z,22.75
2018-08-04T03:33:39.649Z,21.50
2018-08-04T03:36:08.825Z,20.97
2018-08-04T03:38:37.989Z,21.27
2018-08-04T03:41:07.172Z,21.15
2018-08-04T03:43:36.349Z,20.83
2018-08-04T03:46:05.593Z,21.87
2018-08-04T03:48:34.746Z,20.68
2018-08-04T03:51:03.997Z,21.23
2018-08-04T03:53:33.205Z,20.70
2018-08-04T03:56:02.375Z,21.30
2018-08-04T03:58:31.557Z,21.73
2018-08-04T04:01:00.722Z,21.70
2018-08-04T04:03:29.914Z,20.72
2018-08-04T04:05:59.090Z,20.50
2018-08-04T04:08:28.281Z,23.12
2018-08-04T04:10:57.465Z,21.73
2018-08-04T04:13:26.684Z,22.55
2018-08-04T04:15:55.829Z,22.50
2018-08-04T04:18:25.033Z,20.03
2018-08-04T04:20:54.325Z,21.73
2018-08-04T04:23:23.521Z,24.35
2018-08-04T04:25:52.680Z,19.77
2018-08-04T04:28:21.850Z,21.20
2018-08-04T04:30:51.001Z,20.60
2018-08-04T04:33:20.192Z,19.65
2018-08-04T04:35:49.380Z,19.70
2018-08-04T04:38:18.543Z,18.95
2018-08-04T04:40:47.721Z,19.17
2018-08-04T04:43:16.913Z,18.20
2018-08-04T04:45:46.214Z,19.25
2018-08-04T04:48:15.481Z,19.23
2018-08-04T04:50:44.664Z,19.25
2018-08-04T04:53:13.833Z,17.80
2018-08-04T04:55:43.005Z,19.30
2018-08-04T04:58:12.227Z,19.55
2018-08-04T05:00:41.397Z,18.52
2018-08-04T05:03:10.557Z,18.00
2018-08-04T05:05:39.729Z,17.70
2018-08-04T05:08:08.876Z,18.77
2018-08-04T05:10:37.849Z,19.12
2018-08-04T05:13:07.460Z,18.40
2018-08-04T05:15:36.649Z,18.77
2018-08-04T05:18:05.952Z,18.97
2018-08-04T05:20:35.137Z,19.03
2018-08-04T05:23:04.313Z,19.12
2018-08-04T05:25:33.501Z,19.87
2018-08-04T05:28:02.681Z,19.40
2018-08-04T05:30:31.869Z,19.95
2018-08-04T05:33:01.037Z,20.15
2018-08-04T05:35:30.209Z,20.40
2018-08-04T05:37:59.390Z,20.70
2018-08-04T05:40:28.564Z,20.73
2018-08-04T05:42:57.746Z,21.37
2018-08-04T05:45:26.941Z,20.80
2018-08-04T05:47:56.141Z,20.35
2018-08-04T05:50:25.340Z,21.70
2018-08-04T05:52:54.506Z,20.70
2018-08-04T05:55:23.693Z,21.45
2018-08-04T05:57:52.909Z,23.15
2018-08-04T06:00:22.041Z,20.65
2018-08-04T06:02:51.258Z,23.20
2018-08-04T06:05:20.428Z,23.87
2018-08-04T06:07:49.929Z,22.32
2018-08-04T06:10:19.100Z,22.75
2018-08-04T06:12:48.265Z,23.85
2018-08-04T06:15:17.438Z,21.40
2018-08-04T06:17:46.617Z,22.77
2018-08-04T06:20:15.798Z,22.55
2018-08-04T06:22:44.957Z,21.37
2018-08-04T06:25:14.156Z,20.75
2018-08-04T06:27:43.381Z,20.75
2018-08-04T06:30:13.096Z,23.57
2018-08-04T06:32:43.027Z,21.77
2018-08-04T06:35:12.426Z,21.85
2018-08-04T06:37:41.608Z,20.52
2018-08-04T06:40:10.793Z,21.00
2018-08-04T06:42:39.960Z,20.52
2018-08-04T06:45:09.142Z,21.40
2018-08-04T06:47:38.316Z,21.57
2018-08-04T06:50:08.026Z,21.75
2018-08-04T06:52:37.429Z,23.87
2018-08-04T06:55:06.813Z,22.02
2018-08-04T06:57:36.025Z,23.50
2018-08-04T07:00:06.645Z,22.13
2018-08-04T07:02:35.629Z,21.27
2018-08-04T07:05:04.839Z,24.45
2018-08-04T07:07:34.023Z,25.37
2018-08-04T07:10:03.216Z,24.77
2018-08-04T07:12:32.429Z,23.67
2018-08-04T07:15:01.606Z,22.02
2018-08-04T07:17:30.967Z,19.82
2018-08-04T07:20:00.210Z,33.63
2018-08-04T07:22:29.398Z,30.75
2018-08-04T07:24:58.714Z,20.88
2018-08-04T07:27:27.889Z,18.67
2018-08-04T07:29:57.074Z,19.90
2018-08-04T07:33:55.421Z,21.05
2018-08-04T07:36:24.593Z,21.10
2018-08-04T07:38:53.782Z,20.57
2018-08-04T07:41:22.958Z,20.45
2018-08-04T07:43:52.152Z,24.67
2018-08-04T07:46:21.354Z,19.85
2018-08-04T07:48:50.541Z,19.57
2018-08-04T07:51:19.696Z,20.27
2018-08-04T07:53:48.885Z,18.32
2018-08-04T07:56:18.081Z,16.80
2018-08-04T07:58:47.281Z,18.27
2018-08-04T08:01:16.505Z,28.87
2018-08-04T08:03:45.873Z,21.10
2018-08-04T08:06:15.075Z,18.50
2018-08-04T08:08:44.265Z,19.23
2018-08-04T08:11:13.514Z,36.90
2018-08-04T08:13:42.601Z,20.43
2018-08-04T08:16:11.781Z,19.10
2018-08-04T08:18:41.004Z,17.90
2018-08-04T08:21:10.181Z,18.40
2018-08-04T08:23:39.408Z,17.07
2018-08-04T08:26:12.286Z,16.87
2018-08-04T08:28:42.680Z,17.30
2018-08-04T08:31:11.909Z,16.60
2018-08-04T08:33:41.462Z,17.75
2018-08-04T08:36:10.876Z,17.85
2018-08-04T08:38:40.061Z,23.15
2018-08-04T08:41:09.267Z,18.52
2018-08-04T08:43:38.457Z,17.70
2018-08-04T08:46:07.629Z,17.32
2018-08-04T08:48:36.807Z,15.98
2018-08-04T08:51:06.010Z,17.92
2018-08-04T08:53:35.243Z,16.70
2018-08-04T08:56:04.365Z,18.98
2018-08-04T08:58:33.565Z,21.02
2018-08-04T09:01:02.757Z,17.15
2018-08-04T09:03:31.980Z,16.05
2018-08-04T09:06:01.161Z,15.35
2018-08-04T09:08:30.323Z,14.83
2018-08-04T09:10:59.572Z,15.20
2018-08-04T09:13:28.737Z,20.72
2018-08-04T09:15:57.929Z,15.00
2018-08-04T09:18:27.086Z,26.52
2018-08-04T09:20:56.485Z,27.82
2018-08-04T09:23:25.668Z,18.30
2018-08-04T09:25:54.905Z,15.72
2018-08-04T09:28:24.357Z,14.38
2018-08-04T09:30:53.553Z,15.05
2018-08-04T09:33:23.279Z,16.65
2018-08-04T09:35:52.585Z,15.58
2018-08-04T09:38:21.767Z,14.93
2018-08-04T09:40:50.956Z,14.30
2018-08-04T09:43:20.137Z,13.45
2018-08-04T09:45:49.242Z,12.63
2018-08-04T09:48:18.401Z,12.95
2018-08-04T09:50:47.636Z,11.65
2018-08-04T09:53:16.821Z,14.93
2018-08-04T09:55:46.051Z,32.65
2018-08-04T09:58:15.239Z,12.78
2018-08-04T10:00:49.782Z,11.90
2018-08-04T10:03:19.029Z,12.50
2018-08-04T10:05:48.274Z,30.97
2018-08-04T10:08:17.745Z,12.78
2018-08-04T10:10:46.913Z,10.95
2018-08-04T10:13:16.081Z,12.60
2018-08-04T10:15:45.353Z,10.63
2018-08-04T10:18:14.569Z,10.93
2018-08-04T10:20:43.753Z,10.90
2018-08-04T10:23:12.957Z,10.72
2018-08-04T10:25:42.450Z,10.90
2018-08-04T10:28:11.636Z,10.18
2018-08-04T10:30:40.848Z,10.13
2018-08-04T10:33:10.076Z,9.10
2018-08-04T10:35:39.367Z,9.15
2018-08-04T10:38:08.516Z,12.30
2018-08-04T10:40:37.681Z,12.53
2018-08-04T10:43:07.232Z,9.68
2018-08-04T10:45:36.396Z,9.25
2018-08-04T10:48:06.013Z,11.03
2018-08-04T10:50:35.193Z,7.78
2018-08-04T10:53:04.391Z,8.45
2018-08-04T10:55:33.545Z,10.85
2018-08-04T10:58:02.709Z,8.80
2018-08-04T11:00:31.909Z,8.50
2018-08-04T11:03:01.117Z,8.78
2018-08-04T11:05:30.313Z,9.10
2018-08-04T11:07:59.483Z,9.55
2018-08-04T11:10:28.731Z,9.28
2018-08-04T11:12:58.206Z,9.13
2018-08-04T11:15:27.365Z,9.55
2018-08-04T11:17:56.538Z,9.80
2018-08-04T11:20:25.717Z,9.23
2018-08-04T11:22:54.897Z,8.35
2018-08-04T11:25:24.063Z,8.83
2018-08-04T11:27:53.384Z,8.28
2018-08-04T11:30:22.537Z,10.90
2018-08-04T11:32:51.708Z,10.43
2018-08-04T11:35:20.862Z,10.10
2018-08-04T11:37:50.041Z,10.05
2018-08-04T11:40:19.204Z,14.00
2018-08-04T11:42:48.357Z,10.23
2018-08-04T11:45:17.529Z,11.50
2018-08-04T11:47:46.689Z,10.58
2018-08-04T11:50:15.845Z,9.80
2018-08-04T11:52:45.093Z,10.80
2018-08-04T11:55:14.254Z,10.03
2018-08-04T11:57:43.413Z,11.50
2018-08-04T12:00:12.745Z,12.07
2018-08-04T12:02:41.685Z,10.75
2018-08-04T12:05:10.849Z,10.32
2018-08-04T12:07:40.037Z,10.20
2018-08-04T12:10:09.200Z,10.90
2018-08-04T12:12:38.367Z,9.55
2018-08-04T12:15:07.526Z,9.43
2018-08-04T12:17:36.699Z,9.93
2018-08-04T12:20:06.258Z,9.33
2018-08-04T12:22:35.439Z,10.43
2018-08-04T12:25:04.650Z,9.30
2018-08-04T12:27:33.832Z,8.68
2018-08-04T12:30:03.045Z,8.43
2018-08-04T12:32:32.205Z,8.33
2018-08-04T12:35:01.374Z,8.60
2018-08-04T12:37:30.687Z,9.38
2018-08-04T12:40:00.936Z,9.05
2018-08-04T12:42:30.191Z,8.50
2018-08-04T12:44:59.457Z,8.65
2018-08-04T12:47:28.663Z,9.10
2018-08-04T12:49:57.862Z,9.05
2018-08-04T12:52:27.034Z,7.87
2018-08-04T12:54:56.261Z,8.15
2018-08-04T12:57:25.616Z,9.43
2018-08-04T12:59:54.745Z,8.30
2018-08-04T13:02:23.940Z,9.65
2018-08-04T13:04:53.124Z,7.80
2018-08-04T13:07:22.328Z,8.05
2018-08-04T13:09:51.528Z,10.55
2018-08-04T13:12:20.693Z,7.45
2018-08-04T13:14:49.849Z,7.92
2018-08-04T13:17:19.131Z,8.38
2018-08-04T13:19:48.325Z,10.03
2018-08-04T13:22:17.502Z,10.18
2018-08-04T13:24:46.912Z,8.15
2018-08-04T13:27:16.073Z,8.13
2018-08-04T13:29:45.279Z,8.20
2018-08-04T13:32:15.101Z,8.15
2018-08-04T13:34:44.319Z,8.40
2018-08-04T13:37:13.537Z,9.93
2018-08-04T13:39:42.735Z,8.50
2018-08-04T13:42:11.889Z,8.58
2018-08-04T13:44:41.054Z,8.13
2018-08-04T13:47:10.468Z,8.85
2018-08-04T13:49:39.665Z,9.33
2018-08-04T13:52:08.821Z,8.60
2018-08-04T13:54:37.989Z,8.38
2018-08-04T13:57:07.195Z,9.18
2018-08-04T13:59:36.448Z,8.30
2018-08-04T14:02:05.336Z,8.85
2018-08-04T14:04:34.654Z,8.40
2018-08-04T14:07:03.885Z,8.18
2018-08-04T14:09:33.071Z,8.18
2018-08-04T14:12:02.330Z,10.23
2018-08-04T14:14:31.486Z,8.23
2018-08-04T14:17:00.671Z,8.23
2018-08-04T14:19:29.837Z,8.43
2018-08-04T14:21:59.085Z,8.60
2018-08-04T14:24:28.247Z,8.65
2018-08-04T14:26:57.461Z,9.60
2018-08-04T14:29:26.619Z,9.33
2018-08-04T14:31:55.833Z,8.60
2018-08-04T14:34:24.981Z,8.98
2018-08-04T14:36:54.157Z,8.68
2018-08-04T14:39:23.332Z,8.03
2018-08-04T14:41:52.554Z,8.75
2018-08-04T14:44:21.748Z,8.25
2018-08-04T14:46:50.964Z,8.13
2018-08-04T14:49:20.128Z,8.50
2018-08-04T14:51:49.333Z,8.93
2018-08-04T14:54:18.496Z,9.38
2018-08-04T14:56:47.943Z,9.53
2018-08-04T14:59:17.129Z,10.93
2018-08-04T15:01:53.004Z,8.40
2018-08-04T15:04:22.105Z,9.25
2018-08-04T15:06:51.785Z,9.95
2018-08-04T15:09:20.948Z,10.65
2018-08-04T15:11:50.121Z,15.45
2018-08-04T15:14:19.298Z,11.40
2018-08-04T15:16:48.485Z,10.50
2018-08-04T15:19:17.688Z,10.48
2018-08-04T15:21:47.016Z,9.65
2018-08-04T15:24:16.189Z,9.15
2018-08-04T15:26:45.391Z,8.48
2018-08-04T15:29:14.563Z,8.58
2018-08-04T15:31:43.785Z,9.10
2018-08-04T15:34:12.949Z,8.33
2018-08-04T15:37:45.565Z,8.43
2018-08-04T15:40:14.729Z,8.80
2018-08-04T15:42:43.940Z,8.78
2018-08-04T15:45:13.181Z,8.55
2018-08-04T15:47:42.349Z,10.13
2018-08-04T15:50:11.541Z,8.73
2018-08-04T15:52:40.941Z,8.85
2018-08-04T15:55:10.113Z,8.95
2018-08-04T15:57:39.356Z,8.38
2018-08-04T16:00:10.060Z,8.45
2018-08-04T16:02:39.360Z,8.58
2018-08-04T16:05:08.556Z,8.73
2018-08-04T16:07:37.820Z,10.23
2018-08-04T16:10:07.121Z,8.88
2018-08-04T16:12:36.309Z,7.58
2018-08-04T16:15:05.905Z,8.25
2018-08-04T16:17:35.081Z,8.35
2018-08-04T16:20:04.793Z,7.87
2018-08-04T16:22:34.024Z,7.55
2018-08-04T16:25:03.168Z,8.08
2018-08-04T16:27:32.389Z,8.03
2018-08-04T16:30:01.586Z,9.10
2018-08-04T16:32:30.805Z,8.53
2018-08-04T16:34:59.973Z,8.20
2018-08-04T16:37:29.185Z,8.23
2018-08-04T16:39:58.379Z,8.15
2018-08-04T16:42:27.567Z,8.25
2018-08-04T16:44:56.767Z,8.20
2018-08-04T16:47:25.953Z,9.65
2018-08-04T16:49:55.124Z,8.50
2018-08-04T16:52:24.051Z,8.45
2018-08-04T16:54:53.223Z,8.48
2018-08-04T16:57:22.929Z,7.87
2018-08-04T16:59:52.145Z,7.92
2018-08-04T17:02:21.347Z,8.60
2018-08-04T17:04:50.760Z,8.90
2018-08-04T17:07:19.936Z,8.03
2018-08-04T17:09:49.104Z,8.48
2018-08-04T17:12:18.316Z,8.20
2018-08-04T17:14:47.516Z,9.53
2018-08-04T17:17:16.730Z,9.63
2018-08-04T17:19:45.901Z,12.35
2018-08-04T17:22:15.127Z,10.60
2018-08-04T17:24:44.324Z,12.00
2018-08-04T17:27:13.505Z,11.90
2018-08-04T17:29:42.684Z,11.03
2018-08-04T17:32:11.695Z,13.43
2018-08-04T17:34:40.881Z,9.73
2018-08-04T17:37:10.044Z,12.07
2018-08-04T17:39:39.264Z,10.23
2018-08-04T17:42:08.417Z,12.43
2018-08-04T17:44:37.641Z,10.95
2018-08-04T17:47:06.640Z,13.13
2018-08-04T17:49:35.881Z,10.88
2018-08-04T17:52:05.129Z,10.38
2018-08-04T17:54:34.501Z,11.10
2018-08-04T17:57:03.787Z,10.70
2018-08-04T17:59:32.899Z,10.88
2018-08-04T18:02:02.093Z,11.95
2018-08-04T18:04:31.313Z,11.33
2018-08-04T18:07:00.506Z,11.65
2018-08-04T18:09:30.805Z,11.80
2018-08-04T18:11:59.995Z,13.22
2018-08-04T18:14:29.193Z,11.33
2018-08-04T18:16:58.472Z,11.57
2018-08-04T18:19:27.703Z,11.28
2018-08-04T18:21:56.893Z,12.05
2018-08-04T18:24:26.069Z,10.78
2018-08-04T18:26:55.309Z,11.18
2018-08-04T18:29:24.476Z,10.10
2018-08-04T18:31:53.635Z,9.88
2018-08-04T18:34:22.806Z,11.12
2018-08-04T18:36:51.983Z,9.75
2018-08-04T18:39:21.158Z,11.03
2018-08-04T18:41:50.326Z,11.48
2018-08-04T18:44:19.497Z,10.72
2018-08-04T18:46:48.789Z,11.43
2018-08-04T18:49:17.973Z,11.93
2018-08-04T18:51:47.168Z,12.13
2018-08-04T18:54:16.374Z,12.05
2018-08-04T18:56:45.565Z,11.90
2018-08-04T18:59:15.145Z,12.50
2018-08-04T19:01:44.312Z,16.40
2018-08-04T19:04:13.481Z,12.55
2018-08-04T19:06:42.758Z,11.70
2018-08-04T19:09:12.751Z,12.28
2018-08-04T19:11:42.056Z,12.63
2018-08-04T19:14:11.672Z,13.55
2018-08-04T19:16:40.920Z,15.50
2018-08-04T19:19:10.148Z,14.18
2018-08-04T19:21:39.389Z,13.35
2018-08-04T19:24:08.598Z,14.85
2018-08-04T19:26:37.880Z,13.75
2018-08-04T19:29:07.063Z,13.08
2018-08-04T19:31:36.300Z,17.07
2018-08-04T19:34:05.490Z,15.18
2018-08-04T19:36:34.722Z,13.78
2018-08-04T19:39:04.964Z,13.50
2018-08-04T19:41:34.153Z,13.53
2018-08-04T19:44:03.445Z,12.18
2018-08-04T19:46:32.456Z,15.15
2018-08-04T19:49:01.670Z,13.75
2018-08-04T19:51:30.985Z,12.68
2018-08-04T19:54:00.185Z,12.90
2018-08-04T19:56:29.385Z,12.65
2018-08-04T19:58:58.605Z,14.87
2018-08-04T20:01:27.806Z,13.38
2018-08-04T20:03:57.029Z,14.78
2018-08-04T20:06:26.245Z,13.85
2018-08-04T20:08:55.456Z,13.65
2018-08-04T20:11:24.643Z,13.50
2018-08-04T20:13:53.845Z,13.38
2018-08-04T20:16:23.054Z,14.38
2018-08-04T20:18:52.779Z,14.38
2018-08-04T20:21:21.957Z,13.62
2018-08-04T20:23:51.209Z,13.83
2018-08-04T20:26:20.638Z,15.32
2018-08-04T20:28:49.866Z,15.40
2018-08-04T20:31:19.223Z,15.60
2018-08-04T20:33:48.461Z,13.88
2018-08-04T20:36:17.657Z,14.25
2018-08-04T20:38:46.901Z,15.03
2018-08-04T20:41:16.121Z,14.90
2018-08-04T20:43:45.339Z,15.95
2018-08-04T20:46:14.597Z,14.10
2018-08-04T20:48:43.793Z,13.98
2018-08-04T20:51:13.013Z,14.55
2018-08-04T20:53:42.008Z,15.80
2018-08-04T20:56:11.237Z,16.65
2018-08-04T20:58:40.406Z,14.87
2018-08-04T21:02:04.802Z,14.87
2018-08-04T21:04:35.070Z,14.83
2018-08-04T21:07:04.856Z,14.45
2018-08-04T21:09:34.113Z,13.40
2018-08-04T21:12:03.371Z,15.25
2018-08-04T21:14:32.569Z,14.20
2018-08-04T21:17:01.767Z,14.45
2018-08-04T21:19:31.106Z,15.10
2018-08-04T21:22:00.329Z,14.90
2018-08-04T21:24:29.596Z,17.45
2018-08-04T21:26:58.789Z,16.35
2018-08-04T21:29:27.969Z,14.73
2018-08-04T21:31:57.153Z,14.87
2018-08-04T21:34:26.723Z,14.40
2018-08-04T21:36:55.715Z,17.32
2018-08-04T21:39:24.833Z,14.90
2018-08-04T21:41:54.041Z,16.10
2018-08-04T21:44:23.531Z,16.67
2018-08-04T21:46:52.688Z,16.93
2018-08-04T21:49:21.951Z,14.95
2018-08-04T21:51:51.609Z,14.23
2018-08-04T21:54:21.020Z,14.78
2018-08-04T21:56:50.185Z,14.18
2018-08-04T21:59:19.377Z,14.20
2018-08-04T22:01:56.066Z,15.18
2018-08-04T22:04:25.693Z,14.60
2018-08-04T22:08:12.550Z,15.20
2018-08-04T22:10:41.850Z,15.68
2018-08-04T22:13:11.021Z,14.20
2018-08-04T22:15:40.507Z,16.25
2018-08-04T22:18:09.694Z,13.70
2018-08-04T22:20:38.949Z,13.50
2018-08-04T22:23:08.131Z,14.55
2018-08-04T22:25:37.331Z,14.00
2018-08-04T22:28:06.880Z,13.15
2018-08-04T22:30:36.085Z,15.10
2018-08-04T22:33:05.860Z,14.43
2018-08-04T22:35:35.157Z,14.03
2018-08-04T22:38:04.349Z,14.85
2018-08-04T22:40:33.649Z,13.75
2018-08-04T22:43:02.797Z,13.72
2018-08-04T22:46:00.524Z,13.45
2018-08-04T22:48:29.682Z,14.80
2018-08-04T22:50:58.884Z,14.13
2018-08-04T22:53:28.101Z,17.75
2018-08-04T22:55:57.337Z,15.23
2018-08-04T22:58:26.517Z,18.23
2018-08-04T23:00:55.692Z,15.85
2018-08-04T23:03:24.869Z,14.93
2018-08-04T23:05:54.102Z,14.95
2018-08-04T23:08:23.259Z,16.02
2018-08-04T23:10:52.465Z,16.12
2018-08-04T23:13:21.944Z,15.23
2018-08-04T23:15:51.168Z,17.05
2018-08-04T23:18:20.337Z,16.85
2018-08-04T23:20:49.505Z,18.00
2018-08-04T23:23:18.661Z,17.50
2018-08-04T23:25:47.837Z,15.98
2018-08-04T23:28:17.067Z,16.45
2018-08-04T23:30:46.214Z,16.07
2018-08-04T23:33:15.385Z,15.48
2018-08-04T23:35:44.540Z,17.57
2018-08-04T23:38:13.705Z,16.62
2018-08-04T23:40:42.865Z,16.70
2018-08-04T23:43:12.038Z,16.17
2018-08-04T23:45:41.213Z,18.48
2018-08-04T23:48:10.714Z,17.55
2018-08-04T23:50:39.878Z,17.98
2018-08-04T23:53:09.038Z,15.85
2018-08-04T23:55:38.201Z,18.17
2018-08-04T23:58:07.377Z,17.42
